Time;durP1;ratioP1;P1;durP2;ratioP2;P2;SDS_P1;SDS_P2;PMS_P1;PMS_P2;Temp;Humidity;BMP_temperature;BMP_pressure;BME280_temperature;BME280_humidity;BME280_pressure;Samples;Min_cycle;Max_cycle;Signal;HPM_P1;HPM_P2
2021/11/05 00:01:55;;;;;;;;;;;;;;;12.77;74.33;100605.59;4979680;28;20054;-81
2021/11/05 00:04:40;;;;;;;4.00;1.73;;;;;;;12.69;71.89;100610.00;4975771;28;19914;-81
2021/11/05 00:07:25;;;;;;;;;;;;;;;12.72;74.50;100611.25;4978404;28;20535;-80
2021/11/05 00:10:10;;;;;;;3.15;1.77;;;;;;;12.69;76.04;100612.72;4977578;28;19914;-81
2021/11/05 00:12:55;;;;;;;4.03;2.08;;;;;;;12.67;77.06;100608.72;4977431;28;20054;-80
2021/11/05 00:15:40;;;;;;;;;;;;;;;12.67;77.68;100601.34;4979500;28;20053;-81
2021/11/05 00:18:24;;;;;;;2.45;1.30;;;;;;;12.63;76.78;100608.59;4980588;28;19918;-81
2021/11/05 00:21:09;;;;;;;5.30;2.85;;;;;;;12.64;77.93;100601.22;4972890;28;20049;-80
2021/11/05 00:23:54;;;;;;;;;;;;;;;12.65;78.23;100606.31;4979667;28;20054;-81
2021/11/05 00:26:38;;;;;;;4.80;2.00;;;;;;;12.64;77.46;100601.22;4981854;28;19914;-81
2021/11/05 00:29:23;;;;;;;1.83;1.40;;;;;;;12.61;78.58;100597.19;4979106;28;20069;-80
2021/11/05 00:32:09;;;;;;;;;;;;;;;12.65;78.84;100603.59;4976441;28;20058;-81
2021/11/05 00:34:54;;;;;;;2.63;1.80;;;;;;;12.62;78.94;100604.25;4979812;28;19918;-82
2021/11/05 00:37:39;;;;;;;3.45;1.92;;;;;;;12.63;78.83;100605.84;4981927;28;20050;-80
2021/11/05 00:40:25;;;;;;;3.38;1.65;;;;;;;12.64;78.91;100609.38;4973234;28;20054;-80
2021/11/05 00:43:10;;;;;;;2.83;1.25;;;;;;;12.62;78.20;100611.63;4981347;28;20053;-81
2021/11/05 00:45:55;;;;;;;3.30;1.67;;;;;;;12.61;77.90;100610.03;4964844;28;20054;-81
2021/11/05 00:48:39;;;;;;;2.25;1.20;;;;;;;12.60;77.83;100613.88;4963849;28;20057;-80
2021/11/05 00:51:24;;;;;;;3.65;1.55;;;;;;;12.58;77.92;100614.25;4976456;28;20053;-81
2021/11/05 00:54:09;;;;;;;;;;;;;;;12.57;77.20;100615.38;4982342;28;20420;-80
2021/11/05 00:56:54;;;;;;;2.42;1.42;;;;;;;12.53;76.06;100619.88;4979899;28;20211;-80
2021/11/05 00:59:39;;;;;;;;;;;;;;;12.47;71.52;100617.66;4961767;28;20523;-81
2021/11/05 01:02:24;;;;;;;3.10;1.38;;;;;;;12.42;67.85;100613.22;4970957;28;19914;-81
2021/11/05 01:05:13;;;;;;;3.28;1.42;;;;;;;12.34;63.77;100619.53;4985548;28;20531;-81
2021/11/05 01:07:58;;;;;;;1.88;1.40;;;;;;;12.27;63.98;100621.94;4984660;28;20058;-80
2021/11/05 01:10:43;;;;;;;6.57;1.58;;;;;;;12.24;63.92;100620.66;4966205;28;20058;-80
2021/11/05 01:13:28;;;;;;;2.20;1.25;;;;;;;12.22;64.82;100624.88;4963887;28;20066;-81
2021/11/05 01:16:13;;;;;;;2.35;1.23;;;;;;;12.25;66.80;100626.94;4960892;28;20058;-80
2021/11/05 01:18:57;;;;;;;1.75;1.35;;;;;;;12.22;66.98;100625.66;4981443;28;20057;-80
2021/11/05 01:21:42;;;;;;;;;;;;;;;12.25;68.86;100633.19;4965295;28;20050;-81
2021/11/05 01:24:27;;;;;;;2.63;1.40;;;;;;;12.22;66.90;100635.78;4969676;28;20304;-81
2021/11/05 01:27:12;;;;;;;1.88;1.25;;;;;;;12.21;67.42;100629.50;4984935;28;20042;-81
2021/11/05 01:29:59;;;;;;;1.10;0.90;;;;;;;12.19;67.70;100637.22;4973753;28;20054;-81
2021/11/05 01:32:46;;;;;;;3.47;1.80;;;;;;;12.20;67.58;100638.00;4974010;28;20070;-81
2021/11/05 01:35:31;;;;;;;3.80;1.50;;;;;;;12.22;69.25;100636.56;4979005;28;20073;-81
2021/11/05 01:38:15;;;;;;;6.65;1.50;;;;;;;12.17;68.02;100633.22;4983746;28;20065;-81
2021/11/05 01:41:00;;;;;;;1.85;1.20;;;;;;;12.09;66.10;100632.13;4982011;28;20077;-80
2021/11/05 01:43:46;;;;;;;2.55;1.23;;;;;;;12.14;68.19;100640.13;4982702;28;20046;-81
2021/11/05 01:46:32;;;;;;;1.85;1.48;;;;;;;12.10;68.12;100628.28;4971249;28;20050;-81
2021/11/05 01:49:17;;;;;;;3.70;1.10;;;;;;;12.19;72.83;100631.00;4973953;28;20050;-81
2021/11/05 01:52:02;;;;;;;3.65;1.10;;;;;;;12.17;72.50;100625.06;4984706;28;20053;-80
2021/11/05 01:54:49;;;;;;;5.57;1.23;;;;;;;12.17;72.66;100625.84;4972186;28;20412;-80
2021/11/05 01:57:35;;;;;;;5.15;1.58;;;;;;;12.16;71.63;100618.00;4962869;28;20058;-80
2021/11/05 02:00:24;;;;;;;3.90;1.10;;;;;;;12.20;73.60;100619.72;4964432;28;20054;-80
2021/11/05 02:03:09;;;;;;;1.20;0.80;;;;;;;12.18;73.73;100621.19;4981391;28;20409;-80
2021/11/05 02:05:55;;;;;;;1.35;0.88;;;;;;;12.19;75.59;100631.00;4974895;28;20413;-80
2021/11/05 02:08:42;;;;;;;1.70;0.93;;;;;;;12.19;76.34;100620.09;4989017;28;20058;-81
2021/11/05 02:11:26;;;;;;;1.60;1.50;;;;;;;12.19;76.71;100625.53;4983782;28;20050;-80
2021/11/05 02:14:13;;;;;;;;;;;;;;;12.17;76.09;100628.56;4965367;28;20062;-81
2021/11/05 02:17:02;;;;;;;1.90;1.10;;;;;;;12.19;76.68;100620.09;4976856;28;20292;-81
2021/11/05 02:19:46;;;;;;;2.97;1.42;;;;;;;12.11;72.52;100623.63;4982227;28;20054;-80
2021/11/05 02:22:31;;;;;;;;;;;;;;;12.05;68.15;100627.66;4981655;28;20042;-80
2021/11/05 02:25:17;;;;;;;2.08;1.15;;;;;;;12.00;65.99;100624.00;4978645;28;19914;-81
2021/11/05 02:28:02;;;;;;;2.40;1.30;;;;;;;12.03;69.60;100629.94;4981734;28;20049;-81
2021/11/05 02:30:50;;;;;;;2.05;1.20;;;;;;;12.06;73.22;100637.44;4981202;28;20062;-81
2021/11/05 02:33:34;;;;;;;2.55;1.10;;;;;;;12.06;73.96;100629.25;4983449;28;20485;-81
2021/11/05 02:36:19;;;;;;;2.10;0.95;;;;;;;12.01;73.18;100627.53;4974995;28;20046;-81
2021/11/05 02:39:08;;;;;;;;;;;;;;;12.05;74.64;100628.47;4969713;28;20528;-81
2021/11/05 02:41:53;;;;;;;3.20;1.17;;;;;;;11.99;71.66;100636.00;4986251;28;19921;-81
2021/11/05 02:44:38;;;;;;;1.70;1.17;;;;;;;11.95;66.92;100634.28;4981319;28;20046;-80
2021/11/05 02:47:26;;;;;;;0.85;0.75;;;;;;;11.88;63.54;100642.16;4974013;28;20390;-81
2021/11/05 02:50:14;;;;;;;1.98;1.15;;;;;;;11.87;64.68;100641.38;4979710;28;20421;-81
2021/11/05 02:52:59;;;;;;;4.45;1.17;;;;;;;11.86;65.14;100650.66;4982947;28;20062;-80
2021/11/05 02:55:44;;;;;;;;;;;;;;;11.84;65.77;100646.66;4978505;28;20446;-80
2021/11/05 02:58:29;;;;;;;1.27;1.00;;;;;;;11.80;65.92;100640.25;4973464;28;19918;-81
2021/11/05 03:01:14;;;;;;;2.47;1.23;;;;;;;11.81;65.31;100650.03;4978792;28;20540;-80
2021/11/05 03:04:04;;;;;;;1.17;0.80;;;;;;;11.77;65.81;100641.72;4973181;28;20049;-80
2021/11/05 03:06:49;;;;;;;2.33;1.40;;;;;;;11.78;66.06;100647.97;4969991;28;20053;-81
2021/11/05 03:09:35;;;;;;;;;;;;;;;11.76;64.99;100651.00;4972305;28;20049;-82
2021/11/05 03:12:20;;;;;;;1.25;0.88;;;;;;;11.73;64.71;100659.84;4971768;28;19919;-81
2021/11/05 03:15:05;;;;;;;2.03;0.80;;;;;;;11.72;65.62;100663.66;4974708;28;20053;-80
2021/11/05 03:17:50;;;;;;;1.20;0.90;;;;;;;11.69;65.31;100668.91;4977691;28;20046;-80
2021/11/05 03:20:36;;;;;;;1.70;0.77;;;;;;;11.70;67.70;100665.88;4969218;28;20189;-80
2021/11/05 03:23:20;;;;;;;2.88;1.35;;;;;;;11.67;66.50;100668.47;4960113;28;20046;-80
2021/11/05 03:26:06;;;;;;;;;;;;;;;11.65;64.74;100670.69;4981461;28;20054;-81
2021/11/05 03:28:51;;;;;;;1.57;1.17;;;;;;;11.66;66.69;100677.75;4979858;28;19914;-80
2021/11/05 03:31:36;;;;;;;2.70;1.02;;;;;;;11.63;65.45;100675.69;4972614;28;20301;-80
2021/11/05 03:34:21;;;;;;;4.53;1.55;;;;;;;11.58;64.53;100679.34;4983272;28;20143;-80
2021/11/05 03:37:06;;;;;;;1.58;0.88;;;;;;;11.55;64.40;100680.00;4980985;28;20058;-80
2021/11/05 03:39:51;;;;;;;;;;;;;;;11.57;65.24;100688.66;4977818;28;20049;-81
2021/11/05 03:42:36;;;;;;;1.40;1.00;;;;;;;11.62;67.40;100683.06;4978380;28;19914;-80
2021/11/05 03:45:21;;;;;;;4.95;1.48;;;;;;;11.53;65.73;100691.22;4981289;28;20058;-80
2021/11/05 03:48:05;;;;;;;;;;;;;;;11.60;68.79;100696.19;4979456;28;20058;-81
2021/11/05 03:50:50;;;;;;;13.88;2.17;;;;;;;11.55;66.82;100696.34;4981632;28;19914;-81
2021/11/05 03:53:35;;;;;;;4.07;1.77;;;;;;;11.57;67.85;100703.09;4964720;28;20042;-80
2021/11/05 03:56:21;;;;;;;7.18;1.70;;;;;;;11.51;64.69;100709.81;4979616;28;20054;-80
2021/11/05 03:59:05;;;;;;;;;;;;;;;11.54;66.40;100711.06;4981825;28;20050;-81
2021/11/05 04:01:49;;;;;;;3.22;1.15;;;;;;;11.54;67.88;100713.81;4980766;28;20335;-81
2021/11/05 04:04:35;;;;;;;;;;;;;;;11.51;65.27;100719.91;4974470;28;20050;-80
2021/11/05 04:07:19;;;;;;;1.63;1.08;;;;;;;11.44;63.21;100722.28;4983119;28;19914;-80
2021/11/05 04:10:04;;;;;;;;;;;;;;;11.44;62.97;100730.47;4978773;28;20118;-80
2021/11/05 04:12:49;;;;;;;2.75;0.55;;;;;;;11.38;61.74;100723.56;4971448;28;20372;-80
2021/11/05 04:15:34;;;;;;;1.83;1.20;;;;;;;11.35;61.76;100727.75;4982533;28;20054;-80
2021/11/05 04:18:19;;;;;;;;;;;;;;;11.34;61.98;100731.59;4981839;28;20413;-81
2021/11/05 04:21:04;;;;;;;1.15;1.02;;;;;;;11.29;60.89;100739.91;4982184;28;19914;-80
2021/11/05 04:23:48;;;;;;;;;;;;;;;11.22;59.90;100744.25;4975045;28;20042;-80
2021/11/05 04:26:34;;;;;;;1.83;1.20;;;;;;;11.22;60.71;100744.25;4981583;28;19913;-81
2021/11/05 04:29:19;;;;;;;4.47;1.30;;;;;;;11.17;61.01;100737.03;4966293;28;20421;-80
2021/11/05 04:32:05;;;;;;;1.27;1.00;;;;;;;11.14;60.43;100743.09;4969973;28;20057;-81
2021/11/05 04:34:49;;;;;;;1.30;1.10;;;;;;;11.14;60.69;100737.66;4974114;28;20050;-81
2021/11/05 04:37:34;;;;;;;3.72;1.10;;;;;;;11.11;61.18;100733.66;4961454;28;20050;-80
2021/11/05 04:40:19;;;;;;;;;;;;;;;11.15;62.81;100740.06;4963598;28;20050;-80
2021/11/05 04:43:04;;;;;;;2.78;1.10;;;;;;;11.15;62.28;100744.72;4973030;28;19914;-80
2021/11/05 04:45:50;;;;;;;4.30;1.35;;;;;;;11.14;61.80;100748.53;4979118;28;20046;-80
2021/11/05 04:48:35;;;;;;;3.65;1.27;;;;;;;11.13;61.63;100752.38;4982703;28;20061;-80
2021/11/05 04:51:20;;;;;;;2.15;1.10;;;;;;;11.08;61.24;100749.81;5003015;23;20065;-78
2021/11/05 04:54:06;;;;;;;3.40;1.45;;;;;;;11.24;68.59;100752.88;4984272;28;20130;-77
2021/11/05 04:56:51;;;;;;;1.70;0.98;;;;;;;11.22;68.29;100749.69;5001801;28;20069;-78
2021/11/05 04:59:37;;;;;;;4.03;0.98;;;;;;;11.21;68.61;100748.06;4977985;28;20057;-78
2021/11/05 05:02:22;;;;;;;3.50;1.77;;;;;;;11.18;65.59;100751.41;4987399;28;20411;-78
2021/11/05 05:05:06;;;;;;;4.07;1.92;;;;;;;11.11;63.32;100751.91;4992648;28;20053;-78
2021/11/05 05:07:51;;;;;;;1.77;1.00;;;;;;;11.05;62.50;100767.59;4994732;28;20561;-76
2021/11/05 05:10:36;;;;;;;4.00;1.40;;;;;;;11.01;61.83;100768.53;4989605;28;20421;-78
2021/11/05 05:13:21;;;;;;;;;;;;;;;11.12;67.86;100778.00;4976322;28;20069;-77
2021/11/05 05:16:06;;;;;;;2.28;1.40;;;;;;;11.05;65.71;100773.03;4988924;28;19918;-78
2021/11/05 05:18:51;;;;;;;1.33;0.85;;;;;;;11.16;70.97;100784.41;4979420;28;20058;-78
2021/11/05 05:21:36;;;;;;;4.18;0.47;;;;;;;11.20;73.95;100779.13;4978487;28;20057;-78
2021/11/05 05:24:20;;;;;;;2.58;0.55;;;;;;;11.20;74.34;100777.22;4993408;28;20069;-77
2021/11/05 05:27:06;;;;;;;11.65;2.03;;;;;;;11.25;75.25;100787.16;4996501;28;20440;-77
2021/11/05 05:29:50;;;;;;;1.52;0.60;;;;;;;11.20;74.89;100784.56;4996035;28;20061;-78
2021/11/05 05:32:35;;;;;;;2.53;1.00;;;;;;;11.22;74.77;100793.25;4986094;28;20519;-78
2021/11/05 05:35:21;;;;;;;2.70;0.80;;;;;;;11.24;75.26;100799.94;4998570;28;20045;-78
2021/11/05 05:38:06;;;;;;;3.47;0.93;;;;;;;11.18;72.81;100792.25;5001347;28;20069;-78
2021/11/05 05:40:51;;;;;;;4.32;0.82;;;;;;;11.08;68.28;100793.34;4992593;28;20803;-79
2021/11/05 05:43:35;;;;;;;4.25;1.25;;;;;;;11.11;71.77;100798.97;4997102;28;20049;-77
2021/11/05 05:46:20;;;;;;;;;;;;;;;11.11;70.45;100806.34;5002737;28;20535;-77
2021/11/05 05:49:05;;;;;;;9.23;2.28;;;;;;;11.09;69.59;100808.56;4997611;28;19913;-77
2021/11/05 05:51:50;;;;;;;;;;;;;;;11.08;69.61;100815.91;5001023;28;20050;-77
2021/11/05 05:54:34;;;;;;;3.97;1.02;;;;;;;11.13;71.20;100828.56;4993506;28;19914;-78
2021/11/05 05:57:19;;;;;;;2.50;0.82;;;;;;;11.07;71.37;100822.47;4990726;28;20049;-77
2021/11/05 06:00:09;;;;;;;2.75;1.15;;;;;;;11.11;71.78;100836.28;4998311;28;20428;-75
2021/11/05 06:02:54;;;;;;;2.08;1.10;;;;;;;11.07;72.62;100824.41;4983238;28;20053;-76
2021/11/05 06:05:40;;;;;;;;;;;;;;;11.09;72.03;100839.31;4979551;28;20050;-80
2021/11/05 06:08:24;;;;;;;4.50;1.10;;;;;;;11.04;70.60;100836.72;4986088;28;19914;-80
2021/11/05 06:11:09;;;;;;;2.75;1.20;;;;;;;11.03;73.41;100834.31;4987511;28;20053;-80
2021/11/05 06:13:54;;;;;;;10.82;1.45;;;;;;;11.08;74.02;100848.56;5012642;28;20133;-80
2021/11/05 06:16:40;;;;;;;1.58;0.85;;;;;;;11.07;74.52;100849.69;5018827;28;20518;-79
2021/11/05 06:19:26;;;;;;;1.77;0.95;;;;;;;11.02;72.67;100855.28;5002175;28;20046;-79
2021/11/05 06:22:11;;;;;;;1.27;0.95;;;;;;;11.06;72.95;100863.63;5002194;28;20049;-78
2021/11/05 06:24:58;;;;;;;2.90;1.33;;;;;;;11.08;76.27;100864.09;4988772;28;20049;-80
2021/11/05 06:27:43;;;;;;;7.68;2.55;;;;;;;10.97;70.74;100869.03;4995383;28;20054;-77
2021/11/05 06:30:27;;;;;;;3.83;1.42;;;;;;;10.94;70.78;100868.84;4981873;28;20049;-78
2021/11/05 06:33:12;;;;;;;;;;;;;;;10.97;71.38;100874.47;4998257;28;20049;-78
2021/11/05 06:35:57;;;;;;;8.63;2.30;;;;;;;10.92;69.66;100881.97;5003057;28;20300;-78
2021/11/05 06:38:42;;;;;;;4.43;1.38;;;;;;;10.90;68.66;100889.66;5003997;28;20061;-79
2021/11/05 06:41:27;;;;;;;5.80;2.20;;;;;;;10.88;67.82;100894.59;4993269;28;20061;-77
2021/11/05 06:44:12;;;;;;;8.80;2.40;;;;;;;10.80;64.95;100888.00;4994592;28;20041;-78
2021/11/05 06:46:58;;;;;;;6.10;2.55;;;;;;;10.77;64.29;100891.31;4986994;28;20049;-82
2021/11/05 06:49:43;;;;;;;6.03;2.85;;;;;;;10.71;63.67;100904.28;4999798;28;20053;-76
2021/11/05 06:52:28;;;;;;;10.05;2.58;;;;;;;10.67;62.82;100897.03;4998866;28;20054;-79
2021/11/05 06:55:13;;;;;;;;;;;;;;;10.65;63.14;100902.00;4997255;28;20053;-77
2021/11/05 06:57:57;;;;;;;10.95;3.20;;;;;;;10.65;61.41;100902.00;4994964;28;19917;-78
2021/11/05 07:00:42;;;;;;;8.65;2.58;;;;;;;10.59;61.37;100906.75;4996442;28;20045;-78
2021/11/05 07:03:26;;;;;;;7.05;2.50;;;;;;;10.55;60.55;100921.28;4996333;28;20049;-77
2021/11/05 07:06:11;;;;;;;10.98;4.68;;;;;;;10.50;60.20;100913.25;4994459;28;20057;-77
2021/11/05 07:08:56;;;;;;;9.07;4.05;;;;;;;10.47;60.27;100914.66;4998359;28;20065;-77
2021/11/05 07:11:41;;;;;;;10.05;4.05;;;;;;;10.44;60.60;100917.19;4996839;28;20049;-78
2021/11/05 07:14:26;;;;;;;12.65;4.97;;;;;;;10.43;60.41;100915.59;4994637;28;20553;-78
2021/11/05 07:17:11;;;;;;;12.18;4.15;;;;;;;10.39;61.56;100922.75;4998424;28;20046;-79
2021/11/05 07:19:55;;;;;;;8.30;5.45;;;;;;;10.46;63.11;100932.09;4996540;28;20069;-78
2021/11/05 07:22:44;;;;;;;;;;;;;;;10.46;63.31;100926.66;4994885;28;20049;-78
2021/11/05 07:25:28;;;;;;;9.32;3.70;;;;;;;10.47;63.63;100928.25;4998156;28;19913;-78
2021/11/05 07:28:13;;;;;;;6.28;3.22;;;;;;;10.48;63.12;100929.06;4996422;28;20053;-78
2021/11/05 07:30:58;;;;;;;13.90;7.50;;;;;;;10.49;64.37;100947.78;4994400;28;20057;-76
2021/11/05 07:33:43;;;;;;;10.57;5.00;;;;;;;10.49;64.38;100944.25;4998031;28;20045;-76
2021/11/05 07:36:28;;;;;;;;;;;;;;;10.52;64.55;100949.88;4996705;28;20527;-76
2021/11/05 07:39:13;;;;;;;12.25;6.53;;;;;;;10.51;64.16;100947.50;4995012;28;19914;-77
2021/11/05 07:41:57;;;;;;;21.05;7.60;;;;;;;10.56;64.23;100958.25;4998452;28;20049;-77
2021/11/05 07:44:42;;;;;;;14.25;4.28;;;;;;;10.54;64.45;100957.72;4996940;28;20118;-77
2021/11/05 07:47:27;;;;;;;;;;;;;;;10.58;64.67;100964.16;4995344;28;20054;-77
2021/11/05 07:50:14;;;;;;;17.35;4.97;;;;;;;10.58;64.87;100964.16;4997186;28;19913;-77
2021/11/05 07:53:04;;;;;;;14.50;5.13;;;;;;;10.61;64.93;100958.13;4996364;28;20041;-78
2021/11/05 07:55:49;;;;;;;10.77;5.05;;;;;;;10.59;64.71;100969.28;4994193;28;20049;-77
2021/11/05 07:58:34;;;;;;;20.00;4.00;;;;;;;10.61;65.00;100974.44;4998179;28;20050;-77
2021/11/05 08:01:19;;;;;;;12.75;4.13;;;;;;;10.63;65.69;100980.34;4993716;28;20045;-77
2021/11/05 08:04:04;;;;;;;16.60;4.40;;;;;;;10.64;65.72;100985.50;4994491;28;20037;-77
2021/11/05 08:06:49;;;;;;;;;;;;;;;10.66;65.93;100986.00;4993090;28;20073;-77
2021/11/05 08:09:33;;;;;;;21.15;5.20;;;;;;;10.64;65.79;100990.13;4996516;28;19918;-77
2021/11/05 08:12:18;;;;;;;19.98;4.50;;;;;;;10.67;65.83;100994.94;4993888;28;20049;-78
2021/11/05 08:15:04;;;;;;;11.68;4.57;;;;;;;10.73;65.96;101004.59;4992800;28;20061;-77
2021/11/05 08:17:50;;;;;;;14.23;5.72;;;;;;;10.75;65.83;101007.00;4996686;28;20420;-77
2021/11/05 08:20:34;;;;;;;20.73;8.23;;;;;;;10.72;66.11;101003.78;4994334;28;20053;-77
2021/11/05 08:23:20;;;;;;;14.82;6.72;;;;;;;10.75;66.62;101015.97;4992708;28;20045;-77
2021/11/05 08:26:06;;;;;;;14.65;8.40;;;;;;;10.77;67.02;101005.56;4996583;28;20049;-79
2021/11/05 08:28:51;;;;;;;24.55;8.25;;;;;;;10.77;67.64;101016.44;4994743;28;20072;-77
2021/11/05 08:31:35;;;;;;;8.27;5.15;;;;;;;10.79;67.98;101011.50;4992369;28;20096;-77
2021/11/05 08:34:20;;;;;;;16.70;6.93;;;;;;;10.81;68.66;101008.50;4996698;28;20060;-78
2021/11/05 08:37:06;;;;;;;10.90;4.22;;;;;;;10.86;69.55;101016.53;4994911;28;20041;-79
2021/11/05 08:39:51;;;;;;;12.45;6.38;;;;;;;10.91;69.58;101024.56;4992819;28;20057;-77
2021/11/05 08:42:36;;;;;;;5.53;3.65;;;;;;;10.93;70.33;101014.16;4997640;28;20049;-79
2021/11/05 08:45:21;;;;;;;14.35;5.95;;;;;;;10.95;70.13;101022.81;4999218;28;20528;-80
2021/11/05 08:48:06;;;;;;;9.45;4.30;;;;;;;10.98;70.14;101022.19;4995637;28;20050;-80
2021/11/05 08:50:53;;;;;;;6.53;3.45;;;;;;;11.01;71.20;101025.13;4996769;28;20053;-82
2021/11/05 08:53:39;;;;;;;4.90;2.30;;;;;;;11.04;71.95;101021.78;4997244;28;20054;-82
2021/11/05 09:00:15;;;;;;;3.30;1.65;;;;;;;11.13;73.12;101032.69;4996626;28;20065;-80
2021/11/05 09:03:04;;;;;;;3.20;1.55;;;;;;;11.15;73.19;101044.91;4994868;28;20061;-79
2021/11/05 09:05:49;;;;;;;2.88;1.30;;;;;;;11.18;74.54;101038.00;4997493;28;20049;-80
2021/11/05 09:08:36;;;;;;;1.38;0.85;;;;;;;11.22;75.44;101033.59;4995173;28;20053;-78
2021/11/05 09:11:20;;;;;;;3.92;1.73;;;;;;;11.23;75.71;101029.72;4993181;28;20046;-79
2021/11/05 09:14:05;;;;;;;1.58;1.20;;;;;;;11.28;76.45;101042.38;4997918;28;20050;-78
2021/11/05 09:16:49;;;;;;;5.90;1.50;;;;;;;11.29;76.80;101046.72;4995371;28;20049;-78
2021/11/05 09:19:35;;;;;;;3.88;0.77;;;;;;;11.32;77.36;101043.41;4993203;28;20424;-78
2021/11/05 09:22:19;;;;;;;;;;;;;;;11.34;77.34;101044.69;4997865;28;20519;-78
2021/11/05 09:25:08;;;;;;;1.98;1.00;;;;;;;11.37;77.76;101049.53;4998176;28;19914;-80
2021/11/05 09:27:52;;;;;;;5.22;1.35;;;;;;;11.36;77.94;101044.38;4996849;28;20050;-78
2021/11/05 09:30:37;;;;;;;3.03;1.08;;;;;;;11.42;78.47;101059.47;4999301;28;20065;-78
2021/11/05 09:33:22;;;;;;;2.65;1.42;;;;;;;11.44;78.69;101060.75;4998515;28;20045;-78
2021/11/05 09:36:07;;;;;;;2.20;0.82;;;;;;;11.49;78.87;101063.34;4996809;28;20057;-76
2021/11/05 09:38:52;;;;;;;;;;;;;;;11.54;78.64;101065.94;4999868;28;20069;-77
2021/11/05 09:41:37;;;;;;;1.52;0.90;;;;;;;11.57;78.62;101067.25;4993746;28;19918;-77
2021/11/05 09:44:22;;;;;;;4.88;1.45;;;;;;;11.62;78.86;101071.75;4995374;28;20073;-77
2021/11/05 09:47:07;;;;;;;4.95;1.27;;;;;;;11.60;79.30;101066.59;4999727;28;20420;-77
2021/11/05 10:02:14;;;;;;;5.20;1.52;;;;;;;11.77;79.86;101085.78;4981687;28;20046;-77
2021/11/05 10:05:00;;;;;;;10.25;1.65;;;;;;;11.80;79.91;101079.72;4979303;28;20046;-77
2021/11/05 10:07:51;;;;;;;5.50;1.73;;;;;;;11.85;80.01;101082.28;4976184;28;20045;-78
2021/11/05 10:10:40;;;;;;;5.43;1.73;;;;;;;11.84;78.57;101080.69;4961156;28;20050;-77
2021/11/05 10:13:26;;;;;;;5.75;1.40;;;;;;;11.89;78.79;101082.44;4950669;28;20123;-77
2021/11/05 10:16:15;;;;;;;3.72;1.20;;;;;;;11.89;77.94;101086.00;4975666;28;20050;-78
2021/11/05 10:19:04;;;;;;;1.98;1.05;;;;;;;11.96;78.48;101085.53;4961333;28;20401;-77
2021/11/05 10:21:49;;;;;;;3.58;1.33;;;;;;;11.95;77.82;101073.03;4977143;28;20065;-76
2021/11/05 10:24:34;;;;;;;;;;;;;;;12.03;77.64;101083.16;4976488;28;20409;-77
2021/11/05 10:27:28;;;;;;;5.35;1.00;;;;;;;12.08;78.19;101090.41;4992127;28;19913;-76
2021/11/05 10:30:13;;;;;;;2.67;1.17;;;;;;;12.09;78.73;101084.59;4980060;28;20037;-77
2021/11/05 10:33:01;;;;;;;3.92;1.35;;;;;;;12.11;78.07;101087.84;4965437;28;20064;-77
2021/11/05 10:35:50;;;;;;;4.75;0.88;;;;;;;12.17;78.36;101092.03;4962344;28;20516;-77
2021/11/05 10:38:39;;;;;;;4.38;1.15;;;;;;;12.20;78.87;101090.56;4978002;28;20053;-76
2021/11/05 10:41:26;;;;;;;3.60;1.17;;;;;;;12.22;78.51;101091.06;4974034;28;20061;-77
2021/11/05 10:44:14;;;;;;;2.47;0.70;;;;;;;12.26;78.31;101092.03;4972533;28;20054;-79
2021/11/05 10:47:07;;;;;;;4.50;1.27;;;;;;;12.27;78.23;101090.94;4975012;28;20046;-79
2021/11/05 10:50:10;;;;;;;2.90;1.13;;;;;;;12.28;77.79;101087.91;4998087;23;20734;31
2021/11/05 10:53:09;;;;;;;5.45;0.80;;;;;;;12.31;78.21;101091.91;4952137;29;19930;-67
2021/11/05 10:56:03;;;;;;;1.42;0.80;;;;;;;12.33;77.99;101090.47;4960063;28;20078;-67
2021/11/05 10:58:56;;;;;;;7.13;1.50;;;;;;;12.32;77.50;101088.84;4955594;29;20050;-66
2021/11/05 11:01:42;;;;;;;7.57;1.20;;;;;;;12.37;77.56;101087.91;4957296;28;20408;-67
2021/11/05 11:04:28;;;;;;;6.13;1.23;;;;;;;12.39;77.06;101088.41;4950710;28;20049;-66
2021/11/05 11:07:34;;;;;;;3.95;1.08;;;;;;;12.41;76.87;101083.41;4955682;28;20086;-67
2021/11/05 11:10:36;;;;;;;7.82;1.40;;;;;;;12.44;76.85;101085.53;4960573;28;20534;-67
2021/11/05 11:13:55;;;;;;;1.80;1.08;;;;;;;12.47;76.12;101084.88;4928027;29;20051;-67
2021/11/05 11:16:42;;;;;;;3.17;1.00;;;;;;;12.48;75.78;101081.03;4935597;29;20051;-67
2021/11/05 11:19:33;;;;;;;5.72;0.80;;;;;;;12.53;75.96;101072.69;4936127;29;20063;-66
2021/11/05 11:22:18;;;;;;;1.40;0.82;;;;;;;12.53;74.84;101080.06;4942381;29;20050;-66
2021/11/05 11:25:06;;;;;;;3.25;1.20;;;;;;;12.56;75.14;101074.78;4947546;28;20049;-66
2021/11/05 11:27:50;;;;;;;1.58;0.88;;;;;;;12.55;74.97;101075.88;4962883;28;20062;-66
2021/11/05 11:30:36;;;;;;;2.15;0.60;;;;;;;12.57;74.33;101072.84;4954937;29;20062;-66
2021/11/05 11:33:22;;;;;;;2.92;2.00;;;;;;;12.57;72.58;101076.38;4954588;29;20046;-64
2021/11/05 11:36:09;;;;;;;3.90;2.40;;;;;;;12.62;72.29;101078.16;4942915;29;20527;-64
2021/11/05 11:38:54;;;;;;;3.50;2.35;;;;;;;12.65;70.72;101082.94;4953805;29;20050;-64
2021/11/05 11:41:40;;;;;;;3.38;2.22;;;;;;;12.66;69.64;101079.91;4962088;28;20053;-64
2021/11/05 11:44:26;;;;;;;3.63;2.53;;;;;;;12.68;68.48;101080.41;4946057;28;20449;-64
2021/11/05 11:47:13;;;;;;;4.97;2.15;;;;;;;12.73;68.56;101077.53;4953284;28;20444;-65
2021/11/05 11:49:59;;;;;;;4.25;1.90;;;;;;;12.75;66.60;101074.44;4954347;29;20069;-64
2021/11/05 11:52:44;;;;;;;6.32;1.52;;;;;;;12.76;65.67;101089.72;4954452;29;20058;-64
2021/11/05 11:55:29;;;;;;;2.65;1.63;;;;;;;12.76;64.35;101079.59;4954121;29;20046;-65
2021/11/05 11:58:15;;;;;;;;;;;;;;;12.82;64.62;101080.25;4954700;29;20058;-65
2021/11/05 12:01:23;;;;;;;3.85;2.20;;;;;;;12.87;64.68;101077.34;4939823;29;19914;-65
2021/11/05 12:04:15;;;;;;;4.78;1.90;;;;;;;12.87;65.04;101077.34;4953752;29;20062;-63
2021/11/05 12:07:03;;;;;;;3.17;2.13;;;;;;;12.93;65.17;101091.66;4955563;28;20523;-64
2021/11/05 12:09:48;;;;;;;4.15;2.42;;;;;;;14.06;54.21;101080.13;4961707;28;20049;-65
2021/11/05 12:12:33;;;;;;;3.50;2.35;;;;;;;14.64;49.94;101075.78;4950807;29;20047;-65
2021/11/05 12:15:19;;;;;;;5.90;2.10;;;;;;;14.88;49.21;101079.44;4953770;28;20050;-68
2021/11/05 12:18:07;;;;;;;4.72;3.05;;;;;;;15.09;47.17;101084.09;4931708;28;20062;-68
2021/11/05 12:20:52;;;;;;;6.22;2.97;;;;;;;15.24;47.79;101080.72;4953760;29;20054;-64
2021/11/05 12:23:36;;;;;;;3.17;2.50;;;;;;;15.31;46.76;101076.31;4953255;29;20038;-64
2021/11/05 12:26:40;;;;;;;;;;;;;;;15.31;48.51;101083.72;4953415;28;20066;-66
2021/11/05 12:29:37;;;;;;;5.47;3.13;;;;;;;15.27;46.87;101080.88;4956677;28;20141;-66
2021/11/05 12:32:32;;;;;;;6.43;4.10;;;;;;;15.23;48.53;101074.47;4961414;28;20046;-65
2021/11/05 12:35:19;;;;;;;10.43;5.25;;;;;;;15.33;47.39;101074.03;4952196;28;20051;-66
2021/11/05 12:38:08;;;;;;;7.20;4.70;;;;;;;15.36;47.12;101089.00;4951515;28;20050;-65
2021/11/05 12:41:00;;;;;;;8.23;4.43;;;;;;;15.34;48.59;101091.25;4947268;28;20042;-65
2021/11/05 12:43:46;;;;;;;9.07;5.30;;;;;;;15.26;47.66;101084.75;4943149;29;20062;-65
2021/11/05 12:46:44;;;;;;;6.65;4.55;;;;;;;15.34;47.56;101089.31;4950653;28;20039;-66
2021/11/05 12:49:29;;;;;;;9.43;5.43;;;;;;;15.38;47.18;101090.28;4952907;29;20054;-66
2021/11/05 12:52:23;;;;;;;8.80;5.45;;;;;;;15.41;46.69;101088.78;4953145;29;20503;-66
2021/11/05 12:55:07;;;;;;;10.70;6.72;;;;;;;15.50;48.99;101083.19;4951585;29;20050;-65
2021/11/05 12:57:54;;;;;;;;;;;;;;;15.64;49.82;101095.50;4950612;28;20058;-66
2021/11/05 13:00:42;;;;;;;12.30;8.50;;;;;;;15.73;50.42;101087.16;4957058;29;19914;-66
2021/11/05 13:03:27;;;;;;;13.70;6.32;;;;;;;15.92;51.11;101083.88;4960204;28;20114;-66
2021/11/05 13:06:12;;;;;;;;;;;;;;;16.09;50.86;101095.44;4965633;28;20054;-66
2021/11/05 13:08:57;;;;;;;106.15;23.52;;;;;;;16.10;51.93;101088.78;4944659;29;19914;-69
2021/11/05 13:11:55;;;;;;;;;;;;;;;16.10;50.03;101096.25;4977013;28;20046;-66
2021/11/05 13:14:51;;;;;;;28.30;10.50;;;;;;;16.30;51.25;101091.78;4956799;29;19914;-66
2021/11/05 13:17:38;;;;;;;26.55;9.90;;;;;;;16.38;50.15;101090.84;4956062;29;20050;-66
2021/11/05 13:20:26;;;;;;;15.00;8.40;;;;;;;16.42;50.72;101095.28;4942121;29;20054;-66